Airport View

Enter ICAO identifier to see the current METAR for that AWOS.

KFNL for example

KELO 272052Z AUTO 29007KT 250V310 10SM SCT049 BKN060 18/09 A3017 RMK AO2

27 Aug 2014 21:09

Frequency: 132.025

Phone: 218-365-3814

Other Area AWOS: KCQM - KEVM - KCDD - KBFW

TAF KHIB 271733Z 2718/2818 27006KT P6SM BKN045 FM280000 VRB03KT P6SM FEW050 TEMPO 2808/2812 1SM BR SCT003 FM281500 18006KT P6SM SCT050